Time;durP1;ratioP1;P1;durP2;ratioP2;P2;SDS_P1;SDS_P2;PMS_P1;PMS_P2;Temp;Humidity;BMP_temperature;BMP_pressure;BME280_temperature;BME280_humidity;BME280_pressure;Samples;Min_cycle;Max_cycle;Signal;HPM_P1;HPM_P2
2024/01/12 00:02:18;;;;;;;29.00;17.80;;;;;;;-3.21;100.00;98300.53;1225740;75;2918949;-66
2024/01/12 00:04:51;;;;;;;27.00;18.00;;;;;;;-3.23;100.00;98306.25;1225597;75;2919714;-64
2024/01/12 00:07:24;;;;;;;25.75;18.20;;;;;;;-3.29;100.00;98309.66;1225525;75;2910184;-66
2024/01/12 00:09:56;;;;;;;26.95;18.25;;;;;;;-3.32;100.00;98310.34;1225223;75;2920556;-64
2024/01/12 00:12:29;;;;;;;27.50;18.45;;;;;;;-3.28;100.00;98311.19;1225770;75;2915389;-63
2024/01/12 00:15:05;;;;;;;28.40;19.55;;;;;;;-3.26;100.00;98319.63;1225575;75;2920192;-63
2024/01/12 00:17:38;;;;;;;26.95;19.15;;;;;;;-3.32;100.00;98321.06;1225599;75;2917958;-62
2024/01/12 00:20:13;;;;;;;28.05;19.35;;;;;;;-3.27;100.00;98329.56;1226665;75;2919767;-64
2024/01/12 00:22:46;;;;;;;29.45;20.00;;;;;;;-3.32;100.00;98332.56;1225333;75;2912062;-63
2024/01/12 00:25:18;;;;;;;24.70;17.70;;;;;;;-3.24;100.00;98322.69;1223881;75;2919150;-64
2024/01/12 00:27:51;;;;;;;21.20;15.15;;;;;;;-3.11;100.00;98331.22;1225957;75;2921356;-63
2024/01/12 00:30:27;;;;;;;21.05;13.95;;;;;;;-3.24;100.00;98328.06;1225552;75;2916752;-62
2024/01/12 00:32:59;;;;;;;22.55;16.05;;;;;;;-3.39;100.00;98316.44;1225893;75;2919688;-65
2024/01/12 00:35:32;;;;;;;22.75;16.00;;;;;;;-3.29;100.00;98317.69;1224979;75;2917734;-65
2024/01/12 00:38:05;;;;;;;28.90;19.95;;;;;;;-3.49;100.00;98307.16;1224676;75;2916399;-63
2024/01/12 00:40:38;;;;;;;25.10;17.85;;;;;;;-3.41;100.00;98313.34;1224572;75;2947285;-64
2024/01/12 00:43:10;;;;;;;22.75;16.10;;;;;;;-3.50;100.00;98315.53;1226148;75;2919658;-64
2024/01/12 00:45:46;;;;;;;22.75;15.50;;;;;;;-3.39;100.00;98321.78;1225828;75;2913272;-61
2024/01/12 00:48:19;;;;;;;31.85;21.05;;;;;;;-3.89;100.00;98305.13;1225458;75;2914337;-64
2024/01/12 00:50:51;;;;;;;31.20;20.55;;;;;;;-3.79;100.00;98307.16;1225749;75;2909927;-60
2024/01/12 00:53:24;;;;;;;30.50;18.95;;;;;;;-3.64;100.00;98308.88;1225364;75;2926948;-65
2024/01/12 00:55:57;;;;;;;22.25;16.20;;;;;;;-3.50;100.00;98305.59;1224915;75;2925702;-64
2024/01/12 00:58:30;;;;;;;23.00;16.00;;;;;;;-3.64;100.00;98310.78;1226278;75;2922267;-65
2024/01/12 01:01:06;;;;;;;23.70;16.50;;;;;;;-3.80;100.00;98313.66;1225519;75;2924778;-62
2024/01/12 01:03:39;;;;;;;23.50;15.75;;;;;;;-3.60;100.00;98316.19;1224343;75;2929150;-65
2024/01/12 01:06:12;;;;;;;21.40;15.75;;;;;;;-3.84;100.00;98306.72;1225570;75;2915684;-65
2024/01/12 01:08:45;;;;;;;25.10;16.60;;;;;;;-3.76;100.00;98311.00;1224663;75;2913678;-65
2024/01/12 01:11:18;;;;;;;22.80;15.55;;;;;;;-3.69;100.00;98316.47;1225370;75;2923667;-64
2024/01/12 01:13:52;;;;;;;20.00;14.50;;;;;;;-3.76;100.00;98316.38;1225872;75;2902303;-65
2024/01/12 01:16:27;;;;;;;15.50;11.60;;;;;;;-3.81;100.00;98322.81;1225045;75;2917004;-63
2024/01/12 01:19:00;;;;;;;22.70;16.10;;;;;;;-4.01;100.00;98313.38;1226366;75;2912965;-63
2024/01/12 01:21:33;;;;;;;25.05;17.75;;;;;;;-4.16;100.00;98312.41;1225449;75;2914310;-64
2024/01/12 01:24:06;;;;;;;23.80;16.85;;;;;;;-4.12;100.00;98318.56;1224552;75;2918695;-64
2024/01/12 01:26:39;;;;;;;25.15;16.95;;;;;;;-4.16;100.00;98310.53;1225084;75;2921408;-61
2024/01/12 01:29:11;;;;;;;25.20;18.05;;;;;;;-4.19;100.00;98307.78;1225810;75;2913372;-64
2024/01/12 01:31:47;;;;;;;22.30;15.25;;;;;;;-4.04;100.00;98311.41;1224915;75;2915603;-61
2024/01/12 01:34:20;;;;;;;20.05;14.50;;;;;;;-4.09;100.00;98320.53;1225019;75;2918102;-64
2024/01/12 01:36:57;;;;;;;21.50;16.50;;;;;;;-4.39;100.00;98321.25;1224148;75;2918425;-67
2024/01/12 01:39:30;;;;;;;20.55;14.80;;;;;;;-4.15;100.00;98309.38;1225112;75;2930497;-62
2024/01/12 01:42:03;;;;;;;16.55;11.70;;;;;;;-4.06;100.00;98303.78;1226087;75;2920784;-65
2024/01/12 01:44:36;;;;;;;14.70;10.65;;;;;;;-4.21;100.00;98307.38;1224490;75;2911678;-63
2024/01/12 01:47:11;;;;;;;19.15;13.70;;;;;;;-4.34;100.00;98302.25;1224396;75;2923303;-60
2024/01/12 01:49:44;;;;;;;18.85;12.90;;;;;;;-4.40;100.00;98298.34;1224380;75;2917865;-61
2024/01/12 01:52:17;;;;;;;23.95;16.70;;;;;;;-4.55;100.00;98291.22;1225060;75;2918892;-63
2024/01/12 01:54:50;;;;;;;27.65;18.90;;;;;;;-4.82;100.00;98301.91;1224788;75;2912467;-66
2024/01/12 01:57:24;;;;;;;24.15;18.10;;;;;;;-4.62;100.00;98299.91;1224294;75;2918596;-60
2024/01/12 01:59:58;;;;;;;23.05;16.65;;;;;;;-4.46;100.00;98297.09;1224708;75;2915993;-63
2024/01/12 02:02:36;;;;;;;24.10;16.55;;;;;;;-4.54;100.00;98306.91;1226034;75;2913857;-64
2024/01/12 02:05:10;;;;;;;23.10;17.60;;;;;;;-4.73;100.00;98297.09;1224342;75;2925807;-64
2024/01/12 02:07:44;;;;;;;26.25;19.30;;;;;;;-4.87;100.00;98318.22;1225304;75;2918041;-63
2024/01/12 02:10:18;;;;;;;26.30;18.35;;;;;;;-5.07;100.00;98298.81;1224038;75;2917218;-63
2024/01/12 02:12:51;;;;;;;24.20;17.40;;;;;;;-4.85;100.00;98304.53;1226007;75;2916942;-64
2024/01/12 02:15:24;;;;;;;25.25;18.55;;;;;;;-4.65;100.00;98323.91;1222552;75;2934848;-63
2024/01/12 02:17:59;;;;;;;30.30;19.40;;;;;;;-4.85;100.00;98294.59;1224745;75;2924785;-65
2024/01/12 02:20:32;;;;;;;33.55;19.65;;;;;;;-4.84;100.00;98312.16;1224079;67;2934307;-65
2024/01/12 02:23:08;;;;;;;29.15;20.25;;;;;;;-4.73;100.00;98293.66;1224602;75;2920765;-63
2024/01/12 02:25:44;;;;;;;24.10;17.80;;;;;;;-4.68;100.00;98313.94;1225184;75;2920550;-63
2024/01/12 02:28:17;;;;;;;30.30;19.85;;;;;;;-4.64;100.00;98309.41;1224168;75;2976291;-62
2024/01/12 02:30:50;;;;;;;29.65;19.50;;;;;;;-4.63;100.00;98308.31;1225430;75;2922191;-66
2024/01/12 02:33:23;;;;;;;26.30;17.75;;;;;;;-4.61;100.00;98309.47;1223469;75;2911530;-62
2024/01/12 02:35:56;;;;;;;27.00;18.45;;;;;;;-4.75;100.00;98302.00;1221510;75;2939110;-64
2024/01/12 02:38:32;;;;;;;22.30;15.75;;;;;;;-4.57;100.00;98299.63;1224455;75;2925092;-64
2024/01/12 02:41:05;;;;;;;17.95;13.60;;;;;;;-4.53;100.00;98318.38;1224777;75;2916843;-62
2024/01/12 02:43:38;;;;;;;20.80;13.20;;;;;;;-4.69;100.00;98307.03;1224637;75;2921971;-65
2024/01/12 02:46:10;;;;;;;21.00;13.85;;;;;;;-4.67;100.00;98310.91;1225507;83;2923919;-64
2024/01/12 02:48:43;;;;;;;23.25;15.70;;;;;;;-4.85;100.00;98320.53;1225024;75;2919217;-63
2024/01/12 02:51:16;;;;;;;21.70;14.60;;;;;;;-4.71;100.00;98323.44;1221993;75;3035293;-62
2024/01/12 02:53:52;;;;;;;20.05;14.45;;;;;;;-4.81;100.00;98314.13;1224547;75;2917520;-62
2024/01/12 02:56:25;;;;;;;17.65;12.75;;;;;;;-4.73;100.00;98321.13;1223574;75;2921684;-63
2024/01/12 02:58:58;;;;;;;18.20;11.40;;;;;;;-4.72;100.00;98311.97;1223346;75;2927034;-66
2024/01/12 03:01:31;;;;;;;15.90;10.00;;;;;;;-4.76;100.00;98315.75;1224979;75;2941995;-63
2024/01/12 03:04:04;;;;;;;16.00;9.35;;;;;;;-4.66;100.00;98325.81;1224725;75;2920868;-64
2024/01/12 03:06:36;;;;;;;10.40;7.15;;;;;;;-4.64;100.00;98328.91;1224614;75;2926362;-63
2024/01/12 03:09:14;;;;;;;12.00;7.90;;;;;;;-4.74;100.00;98318.78;1225061;75;2916355;-65
2024/01/12 03:11:47;;;;;;;10.60;7.20;;;;;;;-4.55;100.00;98321.38;1224919;75;2924598;-65
2024/01/12 03:14:20;;;;;;;9.30;6.25;;;;;;;-4.56;100.00;98319.09;1225762;75;2915342;-62
2024/01/12 03:16:53;;;;;;;8.30;5.95;;;;;;;-4.60;100.00;98320.94;1225310;75;2914957;-63
2024/01/12 03:19:26;;;;;;;6.90;5.35;;;;;;;-4.57;100.00;98323.66;1224587;75;2928631;-67
2024/01/12 03:21:59;;;;;;;8.20;5.05;;;;;;;-4.63;100.00;98318.97;1223827;75;2946248;-65
2024/01/12 03:24:34;;;;;;;7.05;4.80;;;;;;;-4.73;100.00;98318.44;1225149;75;2921137;-69
2024/01/12 03:27:08;;;;;;;6.90;4.55;;;;;;;-4.70;100.00;98322.31;1224354;75;2928369;-62
2024/01/12 03:29:40;;;;;;;7.30;5.05;;;;;;;-4.72;100.00;98335.25;1225449;75;2922767;-65
2024/01/12 03:32:13;;;;;;;6.80;4.80;;;;;;;-4.72;100.00;98329.91;1224710;75;2920811;-64
2024/01/12 03:34:46;;;;;;;6.10;4.10;;;;;;;-4.70;100.00;98322.31;1223962;75;2914997;-64
2024/01/12 03:37:19;;;;;;;6.55;4.35;;;;;;;-4.79;100.00;98321.78;1224648;75;2922412;-64
2024/01/12 03:39:54;;;;;;;6.50;4.20;;;;;;;-4.78;100.00;98318.00;1225290;75;2919578;-63
2024/01/12 03:42:27;;;;;;;10.10;6.50;;;;;;;-5.12;100.00;98323.16;1223687;75;2934749;-63
2024/01/12 03:45:00;;;;;;;7.95;5.80;;;;;;;-4.86;100.00;98330.44;1224944;75;2919695;-64
2024/01/12 03:47:33;;;;;;;8.40;5.05;;;;;;;-4.95;100.00;98341.38;1224386;75;2922380;-63
2024/01/12 03:50:06;;;;;;;7.90;5.30;;;;;;;-5.00;100.00;98338.22;1224808;75;2920509;-66
2024/01/12 03:52:39;;;;;;;8.50;5.55;;;;;;;-5.02;100.00;98337.81;1224192;75;2919438;-68
2024/01/12 03:55:14;;;;;;;7.95;5.60;;;;;;;-5.02;100.00;98343.91;1224301;75;2915997;-61
2024/01/12 03:57:47;;;;;;;8.95;5.55;;;;;;;-4.90;100.00;98340.31;1224245;75;2921056;-62
2024/01/12 04:00:21;;;;;;;7.65;5.65;;;;;;;-5.04;100.00;98334.72;1225802;75;2923344;-63
2024/01/12 04:02:54;;;;;;;9.10;6.30;;;;;;;-5.18;100.00;98343.22;1224185;75;2924247;-66
2024/01/12 04:05:26;;;;;;;8.10;5.90;;;;;;;-5.07;100.00;98335.44;1222965;75;2925970;-64
2024/01/12 04:07:59;;;;;;;8.05;5.20;;;;;;;-5.10;100.00;98342.22;1224932;75;2939876;-61
2024/01/12 04:10:35;;;;;;;6.95;4.95;;;;;;;-5.09;100.00;98348.34;1224399;75;2928626;-65
2024/01/12 04:13:08;;;;;;;8.05;5.45;;;;;;;-5.15;100.00;98334.50;1224185;75;2929727;-61
2024/01/12 04:15:41;;;;;;;7.10;5.15;;;;;;;-5.10;100.00;98342.22;1224971;75;2923103;-65
2024/01/12 04:18:14;;;;;;;6.60;4.55;;;;;;;-5.17;100.00;98348.22;1224735;75;2925373;-65
2024/01/12 04:20:46;;;;;;;7.45;4.70;;;;;;;-5.05;100.00;98343.84;1224021;75;2920299;-63
2024/01/12 04:23:19;;;;;;;6.30;4.30;;;;;;;-5.08;100.00;98342.66;1223705;75;2930100;-61
2024/01/12 04:25:55;;;;;;;6.25;4.50;;;;;;;-5.14;100.00;98347.50;1224268;75;2925288;-65
2024/01/12 04:28:27;;;;;;;7.45;4.95;;;;;;;-5.24;100.00;98350.75;1223655;75;2928271;-63
2024/01/12 04:31:00;;;;;;;7.55;5.30;;;;;;;-5.23;100.00;98356.88;1223153;75;2929402;-66
2024/01/12 04:33:34;;;;;;;8.85;6.05;;;;;;;-5.09;100.00;98365.13;1224003;75;2916772;-66
2024/01/12 04:36:09;;;;;;;8.60;5.70;;;;;;;-5.10;100.00;98360.91;1223802;75;2921859;-64
2024/01/12 04:38:42;;;;;;;8.10;5.45;;;;;;;-4.96;100.00;98361.16;1224677;75;2923485;-62
2024/01/12 04:41:18;;;;;;;6.85;4.80;;;;;;;-4.94;100.00;98358.16;1222089;75;2926492;-64
2024/01/12 04:43:50;;;;;;;8.35;5.15;;;;;;;-4.92;100.00;98370.03;1223965;67;2924323;-63
2024/01/12 04:46:23;;;;;;;8.35;6.00;;;;;;;-5.07;100.00;98362.13;1223974;75;2922412;-65
2024/01/12 04:48:56;;;;;;;8.75;5.25;;;;;;;-5.00;100.00;98371.03;1224219;75;2938799;-63
2024/01/12 04:51:29;;;;;;;6.05;4.20;;;;;;;-4.88;100.00;98371.97;1223701;75;2926248;-61
2024/01/12 04:54:02;;;;;;;9.50;5.90;;;;;;;-5.33;100.00;98390.22;1222718;75;2920429;-65
2024/01/12 04:56:38;;;;;;;73.80;42.25;;;;;;;-5.30;100.00;98375.41;1224399;75;2919476;-66
2024/01/12 04:59:11;;;;;;;23.10;16.00;;;;;;;-5.19;100.00;98369.16;1225038;75;2923152;-64
2024/01/12 05:01:44;;;;;;;16.90;10.85;;;;;;;-5.04;100.00;98372.84;1223912;75;2924176;-61
2024/01/12 05:04:17;;;;;;;14.30;8.70;;;;;;;-5.14;100.00;98368.88;1223612;75;2923536;-66
2024/01/12 05:06:50;;;;;;;10.80;7.80;;;;;;;-5.26;100.00;98385.03;1222731;75;3001280;-63
2024/01/12 05:09:23;;;;;;;9.85;7.60;;;;;;;-5.13;100.00;98394.41;1224269;75;2916472;-64
2024/01/12 05:11:59;;;;;;;10.65;8.75;;;;;;;-5.04;100.00;98394.22;1223296;75;2927168;-62
2024/01/12 05:14:32;;;;;;;9.95;7.25;;;;;;;-5.38;100.00;98391.28;1223711;75;2917730;-65
2024/01/12 05:17:04;;;;;;;11.85;8.10;;;;;;;-5.35;100.00;98389.81;1223092;75;2916442;-65
2024/01/12 05:19:37;;;;;;;14.40;10.05;;;;;;;-5.18;100.00;98397.38;1223911;75;2927021;-63
2024/01/12 05:22:10;;;;;;;13.20;9.00;;;;;;;-5.11;100.00;98404.00;1224674;75;2927363;-64
2024/01/12 05:24:43;;;;;;;18.10;11.50;;;;;;;-5.09;100.00;98413.19;1222694;75;2923021;-63
2024/01/12 05:27:18;;;;;;;16.60;11.65;;;;;;;-4.96;100.00;98414.56;1223646;75;2932229;-61
2024/01/12 05:29:51;;;;;;;13.60;9.60;;;;;;;-5.03;100.00;98413.66;1223689;75;2922912;-65
2024/01/12 05:32:24;;;;;;;21.70;14.75;;;;;;;-5.06;100.00;98423.16;1223423;75;2931057;-62
2024/01/12 05:34:57;;;;;;;20.65;13.90;;;;;;;-5.23;100.00;98435.03;1222134;75;2922638;-66
2024/01/12 05:37:30;;;;;;;17.35;12.30;;;;;;;-5.12;100.00;98443.25;1223684;75;2920401;-64
2024/01/12 05:40:02;;;;;;;20.05;12.90;;;;;;;-5.33;100.00;98443.59;1224071;75;2920748;-63
2024/01/12 05:42:38;;;;;;;18.95;12.75;;;;;;;-5.30;100.00;98440.22;1223189;75;2925340;-65
2024/01/12 05:45:12;;;;;;;19.65;12.55;;;;;;;-5.28;100.00;98451.31;1224355;75;2923910;-63
2024/01/12 05:47:45;;;;;;;19.15;12.20;;;;;;;-5.22;100.00;98443.81;1223906;75;2923133;-61
2024/01/12 05:50:17;;;;;;;18.70;12.35;;;;;;;-5.26;100.00;98451.75;1223115;75;2925545;-64
2024/01/12 05:52:51;;;;;;;25.95;15.65;;;;;;;-5.36;100.00;98449.66;1225058;75;2924691;-63
2024/01/12 05:55:24;;;;;;;24.35;16.60;;;;;;;-5.35;100.00;98459.19;1223546;75;2914711;-64
2024/01/12 05:57:59;;;;;;;19.55;13.05;;;;;;;-5.32;100.00;98463.81;1224247;75;2923915;-62
2024/01/12 06:00:32;;;;;;;15.40;10.25;;;;;;;-5.45;100.00;98459.75;1224690;75;2925193;-65
2024/01/12 06:03:05;;;;;;;16.70;12.00;;;;;;;-5.70;100.00;98469.84;1224009;75;2930508;-64
2024/01/12 06:05:38;;;;;;;13.00;10.05;;;;;;;-5.57;100.00;98477.41;1221887;75;2958049;-61
2024/01/12 06:08:11;;;;;;;13.25;9.15;;;;;;;-5.60;100.00;98478.09;1224808;75;2916651;-64
2024/01/12 06:10:46;;;;;;;12.70;9.40;;;;;;;-5.81;100.00;98475.72;1223898;75;2920755;-63
2024/01/12 06:13:22;;;;;;;13.40;10.30;;;;;;;-5.78;100.00;98469.69;1223025;75;2926646;-65
2024/01/12 06:15:55;;;;;;;14.70;9.55;;;;;;;-5.59;100.00;98473.53;1223973;75;2928023;-64
2024/01/12 06:18:27;;;;;;;10.70;7.70;;;;;;;-5.58;100.00;98473.19;1224315;75;2921223;-63
2024/01/12 06:21:00;;;;;;;9.60;7.50;;;;;;;-5.58;100.00;98483.06;1222895;75;2948565;-63
2024/01/12 06:23:33;;;;;;;9.80;6.45;;;;;;;-5.66;100.00;98486.72;1222025;75;2923249;-63
2024/01/12 06:26:07;;;;;;;9.20;6.60;;;;;;;-5.75;100.00;98484.22;1222598;75;2929876;-62
2024/01/12 06:28:43;;;;;;;11.95;8.40;;;;;;;-5.89;100.00;98486.56;1224147;75;2922491;-64
2024/01/12 06:31:15;;;;;;;12.45;7.70;;;;;;;-5.76;100.00;98489.94;1224185;75;2908305;-64
2024/01/12 06:33:48;;;;;;;9.55;7.60;;;;;;;-5.75;100.00;98502.13;1223882;75;2949330;-63
2024/01/12 06:36:21;;;;;;;8.90;7.05;;;;;;;-5.70;100.00;98496.53;1224993;75;2921576;-65
2024/01/12 06:38:54;;;;;;;10.45;7.65;;;;;;;-5.80;100.00;98506.63;1223888;75;2934514;-63
2024/01/12 06:41:26;;;;;;;10.00;7.50;;;;;;;-5.71;100.00;98503.00;1223995;75;2923765;-63
2024/01/12 06:44:02;;;;;;;10.60;7.50;;;;;;;-5.82;100.00;98498.19;1223416;75;2925110;-62
2024/01/12 06:46:35;;;;;;;12.60;8.85;;;;;;;-6.03;100.00;98501.16;1224020;75;2923989;-63
2024/01/12 06:49:08;;;;;;;11.55;8.55;;;;;;;-5.89;100.00;98511.34;1224256;75;2922749;-63
2024/01/12 06:51:40;;;;;;;10.60;7.85;;;;;;;-5.82;100.00;98506.19;1225244;75;2916427;-64
2024/01/12 06:54:14;;;;;;;12.10;8.25;;;;;;;-5.87;100.00;98508.31;1223502;75;2917170;-63
2024/01/12 06:56:47;;;;;;;9.50;6.95;;;;;;;-5.77;100.00;98513.16;1224098;75;2926075;-63
2024/01/12 06:59:23;;;;;;;10.05;7.10;;;;;;;-5.79;100.00;98521.50;1224836;75;2919397;-62
2024/01/12 07:01:56;;;;;;;8.75;7.00;;;;;;;-5.72;100.00;98515.56;1223389;75;2900410;-62
2024/01/12 07:04:29;;;;;;;8.75;6.85;;;;;;;-5.84;100.00;98518.31;1223440;67;2921342;-64
2024/01/12 07:07:01;;;;;;;11.05;7.75;;;;;;;-5.79;100.00;98521.50;1224488;75;2923898;-64
2024/01/12 07:09:34;;;;;;;11.30;7.10;;;;;;;-5.76;100.00;98520.03;1223303;75;2922143;-61
2024/01/12 07:12:08;;;;;;;11.25;7.65;;;;;;;-5.65;100.00;98525.59;1223779;75;2929262;-62
2024/01/12 07:14:43;;;;;;;10.20;6.70;;;;;;;-5.49;100.00;98537.00;1224129;75;2920716;-63
2024/01/12 07:17:16;;;;;;;8.45;5.80;;;;;;;-5.48;100.00;98533.25;1223406;75;2929887;-62
2024/01/12 07:19:49;;;;;;;7.30;5.85;;;;;;;-5.37;100.00;98525.47;1222917;75;2931801;-64
2024/01/12 07:22:22;;;;;;;9.45;6.10;;;;;;;-5.25;100.00;98527.25;1223890;75;2926463;-60
2024/01/12 07:24:55;;;;;;;10.15;6.30;;;;;;;-5.19;100.00;98523.97;1221884;75;2929846;-62
2024/01/12 07:27:28;;;;;;;7.90;5.75;;;;;;;-5.15;100.00;98521.34;1223230;75;2929717;-62
2024/01/12 07:30:03;;;;;;;12.80;7.35;;;;;;;-5.12;100.00;98523.34;1223846;75;2927459;-63
2024/01/12 07:32:36;;;;;;;13.65;9.85;;;;;;;-5.08;100.00;98520.75;1223129;75;2933799;-63
2024/01/12 07:35:11;;;;;;;11.75;8.75;;;;;;;-5.00;100.00;98523.22;1222731;75;2928804;-62
2024/01/12 07:37:44;;;;;;;10.30;7.55;;;;;;;-4.91;100.00;98533.66;1222787;75;2921246;-63
2024/01/12 07:40:17;;;;;;;11.45;8.80;;;;;;;-4.79;100.00;98527.41;1222844;75;2931887;-64
2024/01/12 07:42:50;;;;;;;10.65;7.45;;;;;;;-4.67;100.00;98523.84;1224288;75;2921674;-64
2024/01/12 07:45:25;;;;;;;7.55;6.20;;;;;;;-4.54;100.00;98528.69;1222781;75;2928303;-65
2024/01/12 07:47:59;;;;;;;10.25;6.95;;;;;;;-4.47;100.00;98530.72;1223096;75;2928510;-64
2024/01/12 07:50:32;;;;;;;7.95;6.35;;;;;;;-4.34;100.00;98526.75;1224281;75;2920801;-63
2024/01/12 07:53:05;;;;;;;9.90;6.85;;;;;;;-4.22;100.00;98528.47;1223067;75;2932308;-61
2024/01/12 07:55:38;;;;;;;9.30;7.40;;;;;;;-3.48;100.00;98530.81;1222355;75;2932968;-65
2024/01/12 07:58:11;;;;;;;10.10;7.05;;;;;;;-2.04;100.00;98532.53;1224377;75;2920277;-65
2024/01/12 08:00:46;;;;;;;9.30;7.05;;;;;;;-0.75;100.00;98533.34;1196330;75;4903741;-63
2024/01/12 08:03:19;;;;;;;9.90;7.10;;;;;;;-0.07;93.28;98533.56;1222224;75;2924679;-63
2024/01/12 08:05:52;;;;;;;8.00;6.60;;;;;;;0.71;86.47;98532.00;1223941;75;2917669;-60
2024/01/12 08:08:25;;;;;;;9.70;8.15;;;;;;;0.62;86.00;98529.69;1223056;75;2925761;-66
2024/01/12 08:10:58;;;;;;;9.65;7.25;;;;;;;1.15;82.94;98528.03;1223194;75;2926208;-65
2024/01/12 08:13:31;;;;;;;9.80;6.40;;;;;;;1.04;82.10;98523.44;1223538;75;2925686;-63
2024/01/12 08:16:06;;;;;;;8.40;6.70;;;;;;;0.85;82.84;98530.03;1223149;75;2920479;-64
2024/01/12 08:18:42;;;;;;;9.30;6.60;;;;;;;0.80;82.89;98530.44;1223359;75;2935751;-63
2024/01/12 08:21:15;;;;;;;11.45;7.20;;;;;;;0.48;84.26;98527.03;1222927;75;2925912;-63
2024/01/12 08:23:48;;;;;;;11.45;7.00;;;;;;;0.76;83.67;98534.31;1224271;75;2926265;-63
2024/01/12 08:26:21;;;;;;;9.55;6.70;;;;;;;0.70;82.64;98536.63;1224522;75;2918636;-65
2024/01/12 08:28:56;;;;;;;10.30;8.00;;;;;;;0.48;85.74;98533.19;1220530;75;2957783;-65
2024/01/12 08:31:32;;;;;;;9.20;7.20;;;;;;;0.39;86.80;98540.91;1221475;75;2925976;-62
2024/01/12 08:34:05;;;;;;;10.70;7.70;;;;;;;0.33;86.13;98542.41;1222567;75;2947224;-62
2024/01/12 08:36:37;;;;;;;15.75;10.10;;;;;;;-0.14;90.08;98547.00;1223714;75;2924512;-62
2024/01/12 08:39:10;;;;;;;13.10;9.25;;;;;;;0.13;90.19;98552.81;1224894;75;2926750;-64
2024/01/12 08:41:43;;;;;;;11.35;8.00;;;;;;;0.50;87.83;98554.34;1223520;75;2933095;-64
2024/01/12 08:44:16;;;;;;;9.90;7.25;;;;;;;0.75;86.35;98555.09;1221669;75;2922509;-64
2024/01/12 08:46:53;;;;;;;8.95;6.40;;;;;;;1.22;84.72;98553.03;1223925;75;2919363;-64
2024/01/12 08:49:26;;;;;;;12.75;8.05;;;;;;;1.36;83.62;98556.88;1223740;75;2923027;-62
2024/01/12 08:51:59;;;;;;;11.10;7.40;;;;;;;1.66;81.34;98562.53;1223910;75;2922692;-65
2024/01/12 08:54:32;;;;;;;10.00;7.05;;;;;;;1.79;81.32;98567.47;1224256;75;2914595;-64
2024/01/12 08:57:04;;;;;;;9.20;6.50;;;;;;;2.09;80.17;98566.88;1223714;75;2922053;-65
2024/01/12 08:59:37;;;;;;;11.45;8.45;;;;;;;1.60;79.28;98566.78;1224250;75;2919040;-66
2024/01/12 09:02:13;;;;;;;17.05;11.00;;;;;;;1.69;80.81;98564.41;1225513;75;2928863;-64
2024/01/12 09:04:46;;;;;;;15.10;10.15;;;;;;;2.41;79.05;98577.47;1222969;75;2922211;-66
2024/01/12 09:07:19;;;;;;;16.75;10.80;;;;;;;2.35;79.75;98573.66;1224608;75;2930444;-63
2024/01/12 09:09:52;;;;;;;17.70;11.70;;;;;;;1.79;78.81;98579.03;1224565;75;2920765;-63
2024/01/12 09:12:25;;;;;;;18.45;12.50;;;;;;;2.16;77.17;98576.88;1223572;75;2933427;-65
2024/01/12 09:14:59;;;;;;;17.45;11.85;;;;;;;2.89;75.80;98584.78;1223470;75;2920390;-64
2024/01/12 09:17:35;;;;;;;15.05;10.50;;;;;;;3.47;70.95;98595.03;1224448;75;2919590;-65
2024/01/12 09:20:10;;;;;;;20.30;12.75;;;;;;;3.30;70.85;98591.34;1224142;75;2932086;-65
2024/01/12 09:22:43;;;;;;;17.60;12.30;;;;;;;3.78;68.87;98596.56;1224141;75;2917025;-63
2024/01/12 09:25:16;;;;;;;17.35;11.75;;;;;;;4.14;67.61;98601.50;1222265;75;2923735;-63
2024/01/12 09:27:50;;;;;;;21.55;13.75;;;;;;;4.22;66.39;98594.81;1223854;75;2921023;-68
2024/01/12 09:30:24;;;;;;;17.05;11.45;;;;;;;5.45;65.35;98593.50;1223183;75;2920055;-63
2024/01/12 09:32:59;;;;;;;19.85;12.45;;;;;;;4.60;64.72;98594.63;1216314;75;2927742;-64
2024/01/12 09:35:32;;;;;;;18.75;12.80;;;;;;;5.63;65.74;98599.38;1223034;75;2923324;-63
2024/01/12 09:38:05;;;;;;;15.30;10.05;;;;;;;6.38;61.41;98595.03;1220923;75;2912658;-65
2024/01/12 09:40:38;;;;;;;18.50;12.25;;;;;;;6.56;60.10;98593.84;1222544;75;2917898;-66
2024/01/12 09:43:17;;;;;;;18.45;11.70;;;;;;;6.67;62.23;98599.06;1224103;75;2915084;-64
2024/01/12 09:45:52;;;;;;;20.20;11.80;;;;;;;6.47;61.27;98601.84;1221283;75;2918141;-63
2024/01/12 09:48:29;;;;;;;17.20;11.80;;;;;;;7.55;60.03;98602.59;1220490;75;2941071;-65
2024/01/12 09:51:02;;;;;;;17.00;12.15;;;;;;;6.91;59.69;98605.06;1223450;75;2921416;-66
2024/01/12 09:53:35;;;;;;;16.05;11.30;;;;;;;7.72;56.68;98595.13;1222566;75;2932226;-64
2024/01/12 09:56:08;;;;;;;21.50;13.00;;;;;;;6.32;60.11;98604.88;1220199;75;2930641;-64
2024/01/12 09:58:42;;;;;;;18.80;13.20;;;;;;;5.38;62.09;98613.41;1219875;75;2931011;-63
2024/01/12 10:01:17;;;;;;;20.50;12.85;;;;;;;4.44;64.98;98614.22;1220677;75;2923566;-65
2024/01/12 10:03:53;;;;;;;18.90;13.10;;;;;;;3.93;65.85;98618.06;1221553;75;2923402;-64
2024/01/12 10:06:26;;;;;;;19.25;13.00;;;;;;;4.61;65.06;98603.50;1222588;75;2914088;-64
2024/01/12 10:09:01;;;;;;;17.00;12.90;;;;;;;4.94;65.96;98599.09;1220923;75;2929087;-62
2024/01/12 10:11:34;;;;;;;20.35;14.00;;;;;;;3.89;67.48;98603.78;1221521;75;2917491;-64
2024/01/12 10:14:07;;;;;;;20.75;13.85;;;;;;;6.40;62.15;98592.66;1218161;75;2921884;-65
2024/01/12 10:16:40;;;;;;;21.10;13.50;;;;;;;5.58;61.07;98593.63;1222543;75;2923787;-64
2024/01/12 10:19:15;;;;;;;18.95;13.25;;;;;;;6.89;60.28;98589.16;1222876;75;2921036;-67
2024/01/12 10:21:48;;;;;;;22.40;13.50;;;;;;;4.76;63.74;98582.34;1222063;75;2933549;-64
2024/01/12 10:24:23;;;;;;;18.75;13.60;;;;;;;3.53;67.56;98590.69;1222523;75;2930861;-66
2024/01/12 10:26:56;;;;;;;19.10;14.65;;;;;;;3.63;68.58;98595.97;1221436;75;2924808;-68
2024/01/12 10:29:29;;;;;;;20.35;13.60;;;;;;;4.34;65.65;98596.19;1221568;75;2916786;-65
2024/01/12 10:32:07;;;;;;;20.55;14.00;;;;;;;3.80;68.00;98586.09;1223148;75;2920126;-67
2024/01/12 10:34:43;;;;;;;;;;;;;;;3.58;68.62;98591.03;1224001;75;2918266;-65
2024/01/12 10:37:18;;;;;;;21.75;14.95;;;;;;;4.08;68.79;98584.16;1220593;83;2921431;-64
2024/01/12 10:39:52;;;;;;;18.10;12.35;;;;;;;4.00;67.76;98590.88;1220479;75;2920814;-65
2024/01/12 10:42:28;;;;;;;22.80;15.65;;;;;;;3.45;69.74;98589.25;1220822;75;2927640;-65
2024/01/12 10:45:05;;;;;;;23.30;15.60;;;;;;;3.44;70.93;98579.56;1222275;75;2920428;-65
2024/01/12 10:47:39;;;;;;;24.65;16.70;;;;;;;3.63;68.93;98581.66;1220730;75;2925576;-64
2024/01/12 10:50:21;;;;;;;23.45;16.55;;;;;;;4.49;67.27;98583.16;1217861;75;2941798;-63
2024/01/12 10:53:03;;;;;;;25.05;14.50;;;;;;;4.32;67.15;98581.50;1218010;75;2923920;-65
2024/01/12 10:55:40;;;;;;;19.05;12.75;;;;;;;4.49;65.74;98588.59;1216115;75;2944278;-64
2024/01/12 10:58:13;;;;;;;18.60;13.35;;;;;;;4.46;66.38;98578.56;1221296;75;2923513;-63
2024/01/12 11:00:47;;;;;;;23.60;13.05;;;;;;;4.06;67.63;98572.97;1223118;75;2917577;-66
2024/01/12 11:03:21;;;;;;;16.20;11.80;;;;;;;3.40;68.64;98576.91;1223466;75;2922167;-67
2024/01/12 11:05:58;;;;;;;13.30;9.25;;;;;;;3.89;66.68;98584.81;1223610;75;2916647;-66
2024/01/12 11:08:31;;;;;;;17.75;10.85;;;;;;;3.26;67.47;98577.84;1224428;75;2924138;-66
2024/01/12 11:11:09;;;;;;;16.10;10.80;;;;;;;3.65;68.16;98581.25;1223806;75;2922667;-64
2024/01/12 11:13:42;;;;;;;20.45;12.60;;;;;;;2.83;70.02;98567.47;1224788;75;2925522;-64
2024/01/12 11:16:15;;;;;;;15.60;11.20;;;;;;;2.64;70.69;98557.22;1223922;75;2921536;-65
2024/01/12 11:18:48;;;;;;;20.25;11.35;;;;;;;2.94;70.77;98551.91;1223870;75;2922335;-64
2024/01/12 11:21:30;;;;;;;19.10;12.80;;;;;;;2.72;71.38;98553.28;1224762;75;2917870;-65
2024/01/12 11:24:02;;;;;;;19.55;13.20;;;;;;;2.85;71.33;98553.53;1223855;75;2926588;-63
2024/01/12 11:26:35;;;;;;;17.95;13.40;;;;;;;3.49;70.05;98547.44;1223703;75;2926374;-65
2024/01/12 11:29:14;;;;;;;19.45;13.15;;;;;;;3.66;69.63;98555.72;1219764;75;2931630;-63
2024/01/12 11:31:54;;;;;;;18.45;12.50;;;;;;;3.32;69.59;98560.00;1222062;75;2922190;-65
2024/01/12 11:34:27;;;;;;;17.15;12.15;;;;;;;5.69;64.56;98537.91;1221507;75;2981749;-63